Time;durP1;ratioP1;P1;durP2;ratioP2;P2;SDS_P1;SDS_P2;PMS_P1;PMS_P2;Temp;Humidity;BMP_temperature;BMP_pressure;BME280_temperature;BME280_humidity;BME280_pressure;Samples;Min_cycle;Max_cycle;Signal;HPM_P1;HPM_P2
2022/06/13 00:01:29;;;;;;;5.80;2.22;;;18.80;90.50;;;;;;5027624;28;20608;-35
2022/06/13 00:03:57;;;;;;;5.05;2.42;;;18.80;90.50;;;;;;5028020;28;20576;-34
2022/06/13 00:06:24;;;;;;;5.20;2.45;;;18.70;90.40;;;;;;5034612;28;20306;-35
2022/06/13 00:08:54;;;;;;;4.85;2.53;;;18.70;90.50;;;;;;5026185;28;20241;-35
2022/06/13 00:11:24;;;;;;;6.07;2.38;;;18.60;90.40;;;;;;5029320;28;20323;-35
2022/06/13 00:13:54;;;;;;;5.13;2.30;;;18.60;90.50;;;;;;5033129;28;20630;-35
2022/06/13 00:16:22;;;;;;;4.20;2.50;;;18.60;90.50;;;;;;5029402;28;20727;-35
2022/06/13 00:18:49;;;;;;;2.95;2.03;;;18.50;90.50;;;;;;5044487;28;20797;-35
2022/06/13 00:21:22;;;;;;;7.88;2.60;;;18.50;90.50;;;;;;5027802;28;20246;-35
2022/06/13 00:23:52;;;;;;;5.78;2.78;;;18.50;90.60;;;;;;5040551;28;20223;-35
2022/06/13 00:26:21;;;;;;;5.05;2.42;;;18.40;90.60;;;;;;5012338;28;20205;-35
2022/06/13 00:28:53;;;;;;;5.30;2.40;;;18.40;90.50;;;;;;5029130;28;20253;-34
2022/06/13 00:31:20;;;;;;;6.32;2.53;;;18.30;90.50;;;;;;5025486;28;20221;-35
2022/06/13 00:33:52;;;;;;;4.85;2.53;;;18.30;90.60;;;;;;5027128;28;20209;-35
2022/06/13 00:36:24;;;;;;;6.53;2.45;;;18.20;90.60;;;;;;5012246;28;20283;-35
2022/06/13 00:38:52;;;;;;;5.07;2.38;;;18.20;90.60;;;;;;5032435;28;20209;-34
2022/06/13 00:41:31;;;;;;;5.40;2.58;;;18.10;90.70;;;;;;5027776;28;20318;-35
2022/06/13 00:44:06;;;;;;;5.45;2.38;;;18.10;90.60;;;;;;5029285;28;20219;-35
2022/06/13 00:46:34;;;;;;;4.75;2.50;;;18.10;90.60;;;;;;5028317;28;20254;-34
2022/06/13 00:49:06;;;;;;;6.75;2.60;;;18.00;90.70;;;;;;5027427;28;20220;-34
2022/06/13 00:51:43;;;;;;;4.70;2.53;;;18.00;90.70;;;;;;5028070;28;20212;-35
2022/06/13 00:54:15;;;;;;;4.90;2.40;;;18.00;90.80;;;;;;5029238;28;20201;-35
2022/06/13 00:56:43;;;;;;;5.30;2.50;;;18.00;90.90;;;;;;5028777;28;20268;-35
2022/06/13 00:59:15;;;;;;;8.38;2.60;;;17.90;90.80;;;;;;5026930;28;20216;-35
2022/06/13 01:01:43;;;;;;;5.22;3.00;;;17.90;90.90;;;;;;5028182;28;20689;-35
2022/06/13 01:04:13;;;;;;;5.75;2.10;;;17.80;90.90;;;;;;5027488;28;20208;-35
2022/06/13 01:06:47;;;;;;;5.97;2.38;;;17.80;90.90;;;;;;5026569;28;20205;-35
2022/06/13 01:11:16;;;;;;;6.72;3.08;;;17.80;91.00;;;;;;5024997;28;20227;-34
2022/06/13 01:12:07;;;;;;;4.63;2.63;;;17.80;90.90;;;;;;5024557;28;20247;-35
2022/06/13 01:14:52;;;;;;;4.13;2.30;;;17.70;91.00;;;;;;5030618;28;20229;-35
2022/06/13 01:18:02;;;;;;;5.10;2.25;;;17.70;91.20;;;;;;5026924;28;20960;-34
2022/06/13 01:20:58;;;;;;;6.40;2.70;;;17.60;91.20;;;;;;5019875;28;20416;-34
2022/06/13 01:23:53;;;;;;;4.95;2.63;;;17.60;91.00;;;;;;5025341;28;20205;-35
2022/06/13 01:26:53;;;;;;;7.18;2.83;;;17.60;91.00;;;;;;5028674;28;20207;-34
2022/06/13 01:29:46;;;;;;;4.07;2.45;;;17.60;91.20;;;;;;5021327;28;20232;-35
2022/06/13 01:32:38;;;;;;;7.25;2.35;;;17.50;91.20;;;;;;5025251;28;20626;-35
2022/06/13 01:35:11;;;;;;;5.57;2.50;;;17.50;91.10;;;;;;5025757;28;20200;-35
2022/06/13 01:37:47;;;;;;;4.90;2.40;;;17.50;91.20;;;;;;5025920;28;20207;-35
2022/06/13 01:40:23;;;;;;;4.28;2.47;;;17.50;91.30;;;;;;5026539;28;20240;-38
2022/06/13 01:43:00;;;;;;;4.53;2.85;;;17.50;91.10;;;;;;5027438;28;20249;-35
2022/06/13 01:45:39;;;;;;;5.72;2.70;;;17.40;91.10;;;;;;5027733;28;20674;-35
2022/06/13 01:48:31;;;;;;;4.25;2.30;;;17.50;91.30;;;;;;5027279;28;20232;-34
2022/06/13 01:51:26;;;;;;;6.45;2.53;;;17.50;91.20;;;;;;5027594;28;20229;-35
2022/06/13 01:54:22;;;;;;;6.32;2.40;;;17.40;91.40;;;;;;5059817;28;20299;-35
2022/06/13 01:57:05;;;;;;;5.28;2.70;;;17.40;91.40;;;;;;5025667;28;20864;-35
2022/06/13 01:59:54;;;;;;;5.90;2.75;;;17.40;91.40;;;;;;5026175;28;20305;-35
2022/06/13 02:02:54;;;;;;;8.30;2.92;;;17.30;91.40;;;;;;5026631;28;20213;-35
2022/06/13 02:05:46;;;;;;;6.25;2.83;;;17.30;91.50;;;;;;5023374;28;20303;-35
2022/06/13 02:08:25;;;;;;;6.25;2.80;;;17.30;91.60;;;;;;5027165;28;20247;-37
2022/06/13 02:11:16;;;;;;;8.65;2.72;;;17.30;91.50;;;;;;5027821;28;20256;-38
2022/06/13 02:13:59;;;;;;;6.30;2.83;;;17.20;91.50;;;;;;5027771;28;20193;-37
2022/06/13 02:16:42;;;;;;;6.30;2.65;;;17.20;91.40;;;;;;5027498;28;20231;-37
2022/06/13 02:19:18;;;;;;;5.30;2.63;;;17.20;91.50;;;;;;5023211;28;20204;-37
2022/06/13 02:21:57;;;;;;;7.70;2.92;;;17.20;91.60;;;;;;5026349;28;20299;-37
2022/06/13 02:24:33;;;;;;;5.30;2.60;;;17.20;91.60;;;;;;5027836;28;20204;-37
2022/06/13 02:27:03;;;;;;;5.25;2.72;;;17.20;91.60;;;;;;5027721;28;20259;-38
2022/06/13 02:29:41;;;;;;;10.68;3.05;;;17.20;91.50;;;;;;5025906;28;20228;-37
2022/06/13 02:32:30;;;;;;;4.57;2.47;;;17.20;91.50;;;;;;5026027;28;20205;-37
2022/06/13 02:35:25;;;;;;;6.57;3.03;;;17.20;91.60;;;;;;5024269;28;20244;-38
2022/06/13 02:38:01;;;;;;;5.63;2.70;;;17.20;91.60;;;;;;5027401;28;20205;-37
2022/06/13 02:40:34;;;;;;;6.35;2.78;;;17.20;92.00;;;;;;5025101;28;20540;-37
2022/06/13 02:43:16;;;;;;;5.20;2.72;;;17.20;91.70;;;;;;5025071;28;20212;-37
2022/06/13 02:45:50;;;;;;;5.97;2.63;;;17.20;91.70;;;;;;5026991;28;20688;-37
2022/06/13 02:48:38;;;;;;;4.95;2.67;;;17.20;91.90;;;;;;5027015;28;20209;-37
2022/06/13 02:51:08;;;;;;;7.57;2.97;;;17.20;91.90;;;;;;5026447;28;20672;-37
2022/06/13 02:53:43;;;;;;;6.68;2.88;;;17.20;91.80;;;;;;5024746;28;20209;-37
2022/06/13 02:56:25;;;;;;;7.30;2.70;;;17.20;91.90;;;;;;5015613;28;20294;-37
2022/06/13 02:59:01;;;;;;;3.83;2.53;;;17.20;91.90;;;;;;5026956;28;20291;-37
2022/06/13 03:01:41;;;;;;;7.45;3.10;;;17.20;91.90;;;;;;5024590;28;20582;-39
2022/06/13 03:04:17;;;;;;;9.85;2.92;;;17.20;92.00;;;;;;5024922;28;20267;-37
2022/06/13 03:07:19;;;;;;;5.18;2.80;;;17.20;91.90;;;;;;5026525;28;20224;-37
2022/06/13 03:09:54;;;;;;;7.13;2.60;;;17.20;92.00;;;;;;5026052;28;20244;-37
2022/06/13 03:12:39;;;;;;;5.65;2.90;;;17.20;92.00;;;;;;5017748;28;20255;-37
2022/06/13 03:15:15;;;;;;;5.18;3.00;;;17.20;92.30;;;;;;5027355;28;20575;-37
2022/06/13 03:17:55;;;;;;;6.65;2.92;;;17.20;92.20;;;;;;5025748;28;20208;-37
2022/06/13 03:20:31;;;;;;;4.93;2.88;;;17.20;92.30;;;;;;5027169;28;20219;-37
2022/06/13 03:23:03;;;;;;;8.85;3.67;;;17.10;92.20;;;;;;5013118;28;20322;-37
2022/06/13 03:25:58;;;;;;;4.63;2.63;;;17.10;92.10;;;;;;5026377;28;20211;-37
2022/06/13 03:28:39;;;;;;;5.05;2.90;;;17.10;92.40;;;;;;5030795;28;20228;-38
2022/06/13 03:31:12;;;;;;;7.57;3.05;;;17.10;92.20;;;;;;5029311;28;20323;-37
2022/06/13 03:33:46;;;;;;;5.82;2.95;;;17.10;92.30;;;;;;5028402;28;20197;-37
2022/06/13 03:36:26;;;;;;;7.43;2.70;;;17.00;92.30;;;;;;5030923;28;20303;-37
2022/06/13 03:39:21;;;;;;;8.63;3.00;;;17.00;92.30;;;;;;5030875;28;20575;-38
2022/06/13 03:41:54;;;;;;;6.28;2.88;;;17.00;92.70;;;;;;5027190;28;20749;-37
2022/06/13 03:44:45;;;;;;;7.53;3.08;;;17.00;92.30;;;;;;5026909;28;20204;-37
2022/06/13 03:47:25;;;;;;;6.22;2.63;;;17.00;92.40;;;;;;5030878;28;20221;-38
2022/06/13 03:50:37;;;;;;;5.82;2.85;;;17.00;92.40;;;;;;5030535;28;20315;-37
2022/06/13 03:53:15;;;;;;;8.43;3.10;;;17.00;92.50;;;;;;5001876;28;20217;-37
2022/06/13 03:55:55;;;;;;;10.00;2.85;;;17.00;92.50;;;;;;5007864;28;20209;-37
2022/06/13 03:58:47;;;;;;;5.65;2.65;;;17.00;92.50;;;;;;5022069;28;20220;-37
2022/06/13 04:01:21;;;;;;;8.25;3.30;;;17.00;92.50;;;;;;5022734;28;20421;-37
2022/06/13 04:03:48;;;;;;;6.18;2.72;;;16.90;92.50;;;;;;5026097;28;20225;-37
2022/06/13 04:06:37;;;;;;;6.93;3.20;;;17.00;92.50;;;;;;5028816;28;20197;-37
2022/06/13 04:09:12;;;;;;;8.20;3.08;;;17.00;92.80;;;;;;5028990;28;20618;-37
2022/06/13 04:11:57;;;;;;;7.57;3.10;;;16.90;92.70;;;;;;5017431;28;20221;-37
2022/06/13 04:14:45;;;;;;;5.78;2.75;;;17.00;92.70;;;;;;5022464;28;20908;-37
2022/06/13 04:17:32;;;;;;;5.63;2.97;;;17.00;92.90;;;;;;5029388;28;20201;-37
2022/06/13 04:20:13;;;;;;;7.55;2.90;;;17.00;92.90;;;;;;5029872;28;20223;-37
2022/06/13 04:22:52;;;;;;;6.80;3.05;;;17.00;92.80;;;;;;5027475;28;20193;-37
2022/06/13 04:25:27;;;;;;;8.35;3.00;;;17.00;92.90;;;;;;5030133;28;20208;-37
2022/06/13 04:28:05;;;;;;;9.70;3.08;;;17.00;92.90;;;;;;5028581;28;20263;-37
2022/06/13 04:30:35;;;;;;;5.72;2.90;;;17.10;93.00;;;;;;5016720;28;20786;-37
2022/06/13 04:33:29;;;;;;;8.02;3.00;;;17.10;93.10;;;;;;5025837;28;20232;-37
2022/06/13 04:36:00;;;;;;;7.13;3.28;;;17.10;93.10;;;;;;5026229;28;20243;-35
2022/06/13 04:38:32;;;;;;;9.60;3.30;;;17.10;93.00;;;;;;5029369;28;20205;-35
2022/06/13 04:41:04;;;;;;;6.75;3.30;;;17.20;93.20;;;;;;5029113;28;20291;-35
2022/06/13 04:43:41;;;;;;;8.02;3.25;;;17.20;93.20;;;;;;5028474;28;20616;-35
2022/06/13 04:46:11;;;;;;;9.65;3.25;;;17.30;93.20;;;;;;5023533;28;20248;-35
2022/06/13 04:48:44;;;;;;;6.20;3.33;;;17.30;93.30;;;;;;5029932;28;20684;-35
2022/06/13 04:51:28;;;;;;;9.18;3.47;;;17.30;93.20;;;;;;5027184;28;20239;-35
2022/06/13 04:54:04;;;;;;;11.02;3.70;;;17.40;93.30;;;;;;5035159;28;20203;-36
2022/06/13 04:56:32;;;;;;;8.32;3.13;;;17.40;93.50;;;;;;5031706;28;20232;-35
2022/06/13 04:59:01;;;;;;;10.40;3.67;;;17.40;93.40;;;;;;5027502;28;20197;-34
2022/06/13 05:01:41;;;;;;;9.35;3.60;;;17.40;93.50;;;;;;5035330;28;20315;-35
2022/06/13 05:04:15;;;;;;;8.30;3.20;;;17.50;93.60;;;;;;5018631;28;20509;-35
2022/06/13 05:06:52;;;;;;;8.73;3.35;;;17.50;93.60;;;;;;5027793;28;20232;-35
2022/06/13 05:09:35;;;;;;;9.77;3.25;;;17.60;93.70;;;;;;5030124;28;20234;-35
2022/06/13 05:12:06;;;;;;;11.80;4.00;;;17.60;93.70;;;;;;5028862;28;20213;-37
2022/06/13 05:14:39;;;;;;;12.90;3.83;;;17.60;93.70;;;;;;5025439;28;20205;-37
2022/06/13 05:17:17;;;;;;;12.32;3.40;;;17.70;93.80;;;;;;5026621;28;20205;-37
2022/06/13 05:19:48;;;;;;;8.02;3.28;;;17.80;93.90;;;;;;5025065;28;20920;-37
2022/06/13 05:22:41;;;;;;;9.82;3.47;;;17.80;93.90;;;;;;5025212;28;20641;-37
2022/06/13 05:25:36;;;;;;;12.45;4.07;;;17.90;94.10;;;;;;5020021;28;20209;-37
2022/06/13 05:28:03;;;;;;;9.90;3.75;;;17.90;94.10;;;;;;5021114;28;20228;-37
2022/06/13 05:30:31;;;;;;;8.40;3.42;;;18.00;94.10;;;;;;5026595;28;20642;-37
2022/06/13 05:33:04;;;;;;;11.23;3.45;;;18.00;94.10;;;;;;5026859;28;20208;-37
2022/06/13 05:35:35;;;;;;;10.30;3.70;;;18.10;94.20;;;;;;5029416;28;20200;-37
2022/06/13 05:38:05;;;;;;;14.80;4.30;;;18.10;94.20;;;;;;5022789;28;20207;-37
2022/06/13 05:40:35;;;;;;;13.07;4.28;;;18.10;94.40;;;;;;5026014;28;20307;-37
2022/06/13 05:43:02;;;;;;;13.73;4.20;;;18.20;94.20;;;;;;5027664;28;20208;-37
2022/06/13 05:45:29;;;;;;;14.95;5.03;;;18.30;94.30;;;;;;5023165;28;20300;-37
2022/06/13 05:47:57;;;;;;;9.95;3.85;;;18.30;94.30;;;;;;5025123;28;20316;-37
2022/06/13 05:50:32;;;;;;;9.00;3.72;;;18.40;94.30;;;;;;5020861;28;20225;-37
2022/06/13 05:53:00;;;;;;;13.43;4.20;;;18.50;94.30;;;;;;5021627;28;20571;-37
2022/06/13 05:55:27;;;;;;;12.02;4.65;;;18.50;94.30;;;;;;5018188;28;20205;-37
2022/06/13 05:58:02;;;;;;;11.90;4.32;;;18.60;94.50;;;;;;5023471;28;20272;-36
2022/06/13 06:00:40;;;;;;;11.40;4.63;;;18.70;94.30;;;;;;5026693;28;20208;-37
2022/06/13 06:03:07;;;;;;;12.98;4.28;;;18.70;94.40;;;;;;5021745;28;20239;-37
2022/06/13 06:05:35;;;;;;;14.65;4.65;;;18.80;94.60;;;;;;5029675;28;20223;-37
2022/06/13 06:08:05;;;;;;;11.85;4.40;;;18.80;94.70;;;;;;5052291;28;20209;-37
2022/06/13 06:10:37;;;;;;;12.02;4.38;;;18.90;94.60;;;;;;5023479;28;20232;-37
2022/06/13 06:13:04;;;;;;;12.32;4.10;;;19.00;94.70;;;;;;5027022;28;20212;-37
2022/06/13 06:15:31;;;;;;;12.55;4.18;;;19.00;94.70;;;;;;5039086;28;20212;-37
2022/06/13 06:17:59;;;;;;;11.38;4.18;;;19.00;94.60;;;;;;5039932;28;20296;-35
2022/06/13 06:20:26;;;;;;;12.27;4.45;;;19.00;94.70;;;;;;5028656;28;20679;-35
2022/06/13 06:22:53;;;;;;;10.43;3.70;;;19.10;94.80;;;;;;5027886;28;20255;-35
2022/06/13 06:25:21;;;;;;;11.90;4.03;;;19.10;94.70;;;;;;5028603;28;20271;-36
2022/06/13 06:27:48;;;;;;;12.50;4.28;;;19.20;94.80;;;;;;5026055;28;20227;-35
2022/06/13 06:30:17;;;;;;;10.93;3.90;;;19.20;94.90;;;;;;5057550;28;20223;-36
2022/06/13 06:32:46;;;;;;;14.55;4.28;;;19.20;94.80;;;;;;5037322;28;20211;-36
2022/06/13 06:35:14;;;;;;;10.13;3.60;;;19.30;94.80;;;;;;5048353;28;20560;-36
2022/06/13 06:37:47;;;;;;;11.23;4.30;;;19.40;94.80;;;;;;5040683;28;20246;-35
2022/06/13 06:40:17;;;;;;;13.07;4.05;;;19.50;94.90;;;;;;5028476;28;20713;-36
2022/06/13 06:42:44;;;;;;;9.50;3.88;;;19.50;94.90;;;;;;5024953;28;20211;-36
2022/06/13 06:45:25;;;;;;;10.18;3.53;;;19.60;94.90;;;;;;5006770;28;20211;-35
2022/06/13 06:47:54;;;;;;;12.80;4.03;;;19.60;95.00;;;;;;5028143;28;20196;-36
2022/06/13 06:50:27;;;;;;;8.27;3.42;;;19.70;95.00;;;;;;5032539;28;20643;-35
2022/06/13 06:52:54;;;;;;;11.88;4.30;;;19.80;95.10;;;;;;5032121;28;20802;-35
2022/06/13 07:01:07;;;;;;;10.10;4.00;;;19.90;95.00;;;;;;5035113;28;20213;-35
2022/06/13 07:03:35;;;;;;;13.07;5.07;;;19.90;95.10;;;;;;5026314;28;20217;-35
2022/06/13 07:06:02;;;;;;;11.63;4.43;;;20.00;95.10;;;;;;5027327;28;20242;-36
2022/06/13 07:08:29;;;;;;;13.73;4.72;;;20.00;95.10;;;;;;5027317;28;20217;-35
2022/06/13 07:11:53;;;;;;;11.38;4.60;;;20.00;95.10;;;;;;5022541;28;20228;-35
2022/06/13 07:13:51;;;;;;;13.93;4.80;;;20.10;95.20;;;;;;5026534;28;20668;-36
2022/06/13 07:16:19;;;;;;;12.95;4.30;;;20.10;95.10;;;;;;5037256;28;20211;-35
2022/06/13 07:18:46;;;;;;;11.88;4.32;;;20.10;95.30;;;;;;5032333;28;20204;-36
2022/06/13 07:21:14;;;;;;;13.43;5.00;;;20.20;95.20;;;;;;5030079;28;20709;-36
2022/06/13 07:23:41;;;;;;;10.55;4.43;;;20.30;95.30;;;;;;5029683;28;20212;-35
2022/06/13 07:26:11;;;;;;;11.38;4.43;;;20.40;95.30;;;;;;5040986;28;20204;-35
2022/06/13 07:28:38;;;;;;;11.18;4.38;;;20.40;95.30;;;;;;5031172;28;20209;-36
2022/06/13 07:31:06;;;;;;;11.70;4.55;;;20.40;95.30;;;;;;5037651;28;20737;-40
2022/06/13 07:33:39;;;;;;;13.40;4.30;;;20.40;95.30;;;;;;5023546;28;20599;-35
2022/06/13 07:36:06;;;;;;;12.95;4.45;;;20.40;95.30;;;;;;5024060;28;20727;-36
2022/06/13 07:38:38;;;;;;;10.93;4.07;;;20.30;95.30;;;;;;5024552;28;20213;-35
2022/06/13 07:41:06;;;;;;;13.45;4.20;;;20.40;95.40;;;;;;5021634;28;20204;-35
2022/06/13 07:43:36;;;;;;;9.57;4.03;;;20.30;95.30;;;;;;5023734;28;20653;-36
2022/06/13 07:46:06;;;;;;;10.23;3.90;;;20.30;95.30;;;;;;5025292;28;20217;-35
2022/06/13 07:48:34;;;;;;;9.43;3.72;;;20.30;95.40;;;;;;5026946;28;20200;-35
2022/06/13 07:51:05;;;;;;;11.05;3.50;;;20.30;95.30;;;;;;5026313;28;20307;-35
2022/06/13 07:53:36;;;;;;;12.90;4.10;;;20.30;95.40;;;;;;5025363;28;20253;-36
2022/06/13 07:56:31;;;;;;;10.52;4.30;;;20.30;95.40;;;;;;5024294;28;20233;-36
2022/06/13 07:58:59;;;;;;;10.85;3.92;;;20.30;95.40;;;;;;5028927;28;20209;-36
2022/06/13 08:01:27;;;;;;;10.65;3.88;;;20.30;95.40;;;;;;5026124;28;20213;-36
2022/06/13 08:03:55;;;;;;;11.38;3.67;;;20.40;95.40;;;;;;5025948;28;20228;-36
2022/06/13 08:06:24;;;;;;;9.88;3.60;;;20.40;95.80;;;;;;5037997;28;20221;-36
2022/06/13 08:08:53;;;;;;;8.50;2.90;;;20.40;95.40;;;;;;5024597;28;20838;-35
2022/06/13 08:11:35;;;;;;;8.73;3.08;;;20.50;95.30;;;;;;5024422;28;20216;-36
2022/06/13 08:14:06;;;;;;;9.18;3.10;;;20.50;95.00;;;;;;5029396;28;20757;-36
2022/06/13 08:16:36;;;;;;;8.85;3.08;;;20.50;95.00;;;;;;5028294;28;20311;-36
2022/06/13 08:19:04;;;;;;;7.18;2.78;;;20.50;95.20;;;;;;5020668;28;20201;-36
2022/06/13 08:21:35;;;;;;;7.18;2.78;;;20.60;95.10;;;;;;5024095;28;20305;-36
2022/06/13 08:24:04;;;;;;;11.32;3.00;;;20.60;94.80;;;;;;5028206;28;20267;-35
2022/06/13 08:26:40;;;;;;;9.18;2.80;;;20.70;94.80;;;;;;5021792;28;21014;-36
2022/06/13 08:29:07;;;;;;;6.72;2.55;;;20.70;94.80;;;;;;5028543;28;20915;-36
2022/06/13 08:31:36;;;;;;;7.38;2.38;;;20.70;94.70;;;;;;5024802;28;20222;-36
2022/06/13 08:34:05;;;;;;;8.15;2.53;;;20.70;95.00;;;;;;5023090;28;20220;-36
2022/06/13 08:36:32;;;;;;;6.07;2.45;;;20.70;94.60;;;;;;5017862;28;20295;-36
2022/06/13 08:38:59;;;;;;;6.32;2.17;;;20.80;94.60;;;;;;5018833;28;20200;-36
2022/06/13 08:42:05;;;;;;;7.93;2.20;;;20.80;94.30;;;;;;5017223;28;20575;-36
2022/06/13 08:44:41;;;;;;;7.07;2.10;;;20.80;93.90;;;;;;5051457;28;20204;-36
2022/06/13 08:47:44;;;;;;;8.07;2.17;;;20.70;94.30;;;;;;5014579;28;20212;-36
2022/06/13 08:50:24;;;;;;;5.82;2.42;;;20.70;94.30;;;;;;5017960;28;20240;-36
2022/06/13 08:52:56;;;;;;;5.95;2.05;;;20.70;94.50;;;;;;5022198;28;20229;-37
2022/06/13 08:55:33;;;;;;;6.93;2.58;;;20.80;94.50;;;;;;5021425;28;20672;-36
2022/06/13 08:58:07;;;;;;;6.70;2.38;;;20.90;94.50;;;;;;5021140;28;20263;-37
2022/06/13 09:00:44;;;;;;;7.82;2.17;;;20.90;94.50;;;;;;5028067;28;20636;-36
2022/06/13 09:03:24;;;;;;;5.13;2.10;;;21.00;94.20;;;;;;5014305;28;20245;-36
2022/06/13 09:05:52;;;;;;;7.82;2.40;;;21.00;94.50;;;;;;5027718;28;20225;-36
2022/06/13 09:08:37;;;;;;;7.47;2.03;;;21.00;94.10;;;;;;5028117;28;20213;-36
2022/06/13 09:11:19;;;;;;;6.18;2.20;;;21.10;94.20;;;;;;5016935;28;20638;-35
2022/06/13 09:14:09;;;;;;;5.28;2.25;;;21.10;94.20;;;;;;5028664;28;20205;-35
2022/06/13 09:16:38;;;;;;;10.32;2.55;;;21.20;93.90;;;;;;5049551;28;20243;-36
2022/06/13 09:19:31;;;;;;;8.27;2.58;;;21.20;93.70;;;;;;5024456;28;20966;-36
2022/06/13 09:22:10;;;;;;;5.28;2.15;;;21.20;93.60;;;;;;5022557;28;20277;-35
2022/06/13 09:24:42;;;;;;;8.75;2.13;;;21.20;94.00;;;;;;5024877;28;20316;-36
2022/06/13 09:27:18;;;;;;;10.35;2.30;;;21.20;94.10;;;;;;5022216;28;20733;-35
2022/06/13 09:30:28;;;;;;;5.95;2.00;;;21.30;94.00;;;;;;5026713;28;20215;-36
2022/06/13 09:32:58;;;;;;;6.68;2.22;;;21.20;94.10;;;;;;5006153;28;20225;-36
2022/06/13 09:35:32;;;;;;;8.05;2.20;;;21.30;93.50;;;;;;5017932;28;20239;-34
2022/06/13 09:38:18;;;;;;;6.65;2.00;;;21.30;93.70;;;;;;5020897;28;20205;-35
2022/06/13 09:41:03;;;;;;;6.72;2.35;;;21.30;93.60;;;;;;5024918;28;20263;-35
2022/06/13 09:44:03;;;;;;;2.88;1.63;;;21.30;93.20;;;;;;5024913;28;20207;-35
2022/06/13 09:47:15;;;;;;;7.38;2.13;;;21.30;93.50;;;;;;5025186;28;20608;-35
2022/06/13 09:50:13;;;;;;;6.97;2.08;;;21.30;93.20;;;;;;4994779;28;20210;-35
2022/06/13 09:53:08;;;;;;;5.18;1.80;;;21.30;93.20;;;;;;5026445;28;20236;-35
2022/06/13 09:55:44;;;;;;;4.55;2.08;;;21.30;93.50;;;;;;5019433;28;20216;-35
2022/06/13 09:58:42;;;;;;;5.55;2.05;;;21.30;93.00;;;;;;5017820;28;20209;-35
2022/06/13 10:01:23;;;;;;;4.38;1.70;;;21.30;92.80;;;;;;5017840;28;20267;-35
2022/06/13 10:04:08;;;;;;;6.10;1.80;;;21.20;92.80;;;;;;5018957;28;20746;-35
2022/06/13 10:07:05;;;;;;;4.10;1.63;;;21.20;92.40;;;;;;5016812;28;20235;-35
2022/06/13 10:09:52;;;;;;;5.05;1.83;;;21.20;92.70;;;;;;5017715;28;20713;-35
2022/06/13 10:12:50;;;;;;;5.10;1.40;;;21.20;91.70;;;;;;5010557;28;20319;-36
2022/06/13 10:15:20;;;;;;;6.72;2.10;;;21.30;92.30;;;;;;5015116;28;20259;-36
2022/06/13 10:18:19;;;;;;;2.03;1.00;;;21.30;92.10;;;;;;5020355;28;20196;-35
2022/06/13 10:20:56;;;;;;;4.47;1.50;;;21.30;92.60;;;;;;5025089;28;20295;-36
2022/06/13 10:23:54;;;;;;;4.13;1.60;;;21.30;92.40;;;;;;5039667;28;20288;-35
2022/06/13 10:26:33;;;;;;;3.28;1.55;;;21.20;92.00;;;;;;5024579;28;20213;-35
2022/06/13 10:29:23;;;;;;;2.85;1.55;;;21.10;92.20;;;;;;5015291;28;20205;-35
2022/06/13 10:32:05;;;;;;;4.43;1.80;;;21.10;91.90;;;;;;5020123;28;20224;-35
2022/06/13 10:34:52;;;;;;;4.82;1.20;;;21.10;92.50;;;;;;5018661;28;20560;-36
2022/06/13 10:37:33;;;;;;;3.53;1.02;;;21.10;92.60;;;;;;5014966;28;20209;-35
2022/06/13 10:40:05;;;;;;;4.95;2.10;;;21.30;92.70;;;;;;5015655;28;20634;-35
2022/06/13 10:42:38;;;;;;;5.15;1.45;;;21.30;92.50;;;;;;5012551;28;20209;-35
2022/06/13 10:45:10;;;;;;;4.75;1.50;;;21.40;92.70;;;;;;5016372;28;20244;-35
2022/06/13 10:47:50;;;;;;;3.20;1.58;;;21.40;92.50;;;;;;5009458;28;20625;-35
2022/06/13 10:50:28;;;;;;;5.38;1.65;;;21.50;92.90;;;;;;5020858;28;20686;-35
2022/06/13 10:53:07;;;;;;;5.38;1.40;;;21.60;92.80;;;;;;5010021;28;20244;-36
2022/06/13 10:55:43;;;;;;;4.53;1.60;;;21.60;92.50;;;;;;5019983;28;20713;-35
2022/06/13 10:58:22;;;;;;;3.63;1.20;;;21.60;92.40;;;;;;5024050;28;20216;-35
2022/06/13 11:01:10;;;;;;;3.88;1.30;;;21.70;91.70;;;;;;5017030;28;20203;-35
2022/06/13 11:03:42;;;;;;;5.50;1.30;;;21.70;92.30;;;;;;5023078;28;20216;-36
2022/06/13 11:06:21;;;;;;;2.50;1.20;;;21.60;91.90;;;;;;5019153;28;20198;-35
2022/06/13 11:09:01;;;;;;;3.30;1.00;;;21.70;91.70;;;;;;5023202;28;20336;-36
2022/06/13 11:11:34;;;;;;;4.05;1.30;;;21.70;92.50;;;;;;5020315;28;20231;-36
2022/06/13 11:14:03;;;;;;;3.40;1.33;;;21.70;92.30;;;;;;5025973;28;20205;-35
2022/06/13 11:22:40;;;;;;;2.60;1.08;;;21.80;92.40;;;;;;5025611;28;20215;-36
2022/06/13 11:25:27;;;;;;;2.53;1.13;;;21.90;92.30;;;;;;5023875;28;20659;-35
2022/06/13 11:28:07;;;;;;;3.83;1.73;;;21.90;92.60;;;;;;5024785;28;20295;-35
2022/06/13 11:31:21;;;;;;;2.50;1.15;;;21.90;92.50;;;;;;5040212;28;20243;-36
2022/06/13 11:33:51;;;;;;;5.25;1.45;;;21.90;92.70;;;;;;5003697;28;20201;-35
2022/06/13 11:36:23;;;;;;;1.88;0.90;;;22.00;92.50;;;;;;5022203;28;20244;-35
2022/06/13 11:38:59;;;;;;;3.58;1.15;;;22.00;92.70;;;;;;5024313;28;20200;-35
2022/06/13 11:41:35;;;;;;;3.38;1.30;;;22.00;92.50;;;;;;5025523;28;20312;-36
2022/06/13 11:44:08;;;;;;;4.70;1.20;;;21.90;92.40;;;;;;5027570;28;20232;-35
2022/06/13 11:46:55;;;;;;;6.13;1.17;;;22.00;92.50;;;;;;5023702;28;20204;-35
2022/06/13 11:49:30;;;;;;;2.90;1.15;;;21.90;92.30;;;;;;5029833;28;20694;-35
2022/06/13 11:51:59;;;;;;;3.67;1.15;;;21.90;91.90;;;;;;5029297;28;20281;-36
2022/06/13 11:54:31;;;;;;;2.80;1.00;;;21.90;92.40;;;;;;5031323;28;20201;-35
2022/06/13 11:57:23;;;;;;;1.60;1.05;;;21.90;92.40;;;;;;5029095;28;20776;-36
2022/06/13 11:59:52;;;;;;;8.10;1.58;;;22.00;92.70;;;;;;5030283;28;20292;-36
2022/06/13 12:02:31;;;;;;;5.47;1.35;;;22.00;92.30;;;;;;5030897;28;20288;-36
2022/06/13 12:04:58;;;;;;;3.38;1.27;;;22.10;92.30;;;;;;5031378;28;20208;-36
2022/06/13 12:07:29;;;;;;;3.13;1.00;;;22.20;91.80;;;;;;5030632;28;20259;-36
2022/06/13 12:10:01;;;;;;;4.50;1.23;;;22.10;91.90;;;;;;5029934;28;20205;-36
2022/06/13 12:12:46;;;;;;;2.92;1.05;;;22.20;92.10;;;;;;5011164;28;20267;-36
2022/06/13 12:15:18;;;;;;;3.75;0.90;;;22.10;91.90;;;;;;5007733;28;20239;-36
2022/06/13 12:18:00;;;;;;;1.50;0.75;;;22.00;92.00;;;;;;5025553;28;20700;-36
2022/06/13 12:20:44;;;;;;;2.17;0.85;;;22.00;92.10;;;;;;5020278;28;20529;-36
2022/06/13 12:23:32;;;;;;;2.85;0.82;;;22.00;91.90;;;;;;5022283;28;20315;-36
2022/06/13 12:26:25;;;;;;;3.65;0.93;;;22.10;91.30;;;;;;5021593;28;20604;-36
2022/06/13 12:29:17;;;;;;;3.22;1.30;;;22.10;91.70;;;;;;5019185;28;20209;-36
2022/06/13 12:31:54;;;;;;;6.10;1.10;;;22.10;91.60;;;;;;5017894;28;20707;-36
2022/06/13 12:34:36;;;;;;;2.67;0.85;;;22.10;90.80;;;;;;5019245;28;20232;-36
2022/06/13 12:37:09;;;;;;;2.13;0.85;;;22.10;90.80;;;;;;5022371;28;20217;-36
2022/06/13 12:39:49;;;;;;;2.15;0.80;;;22.10;91.30;;;;;;5019939;28;20224;-36
2022/06/13 12:42:52;;;;;;;4.00;1.00;;;22.10;91.40;;;;;;5016861;28;20197;-35
2022/06/13 12:45:29;;;;;;;2.05;0.88;;;22.10;91.50;;;;;;5017084;28;20774;-35
2022/06/13 12:48:05;;;;;;;3.35;1.10;;;22.10;91.20;;;;;;5018379;28;20592;-36
2022/06/13 12:50:54;;;;;;;3.42;0.90;;;22.10;91.50;;;;;;5018950;28;20565;-36
2022/06/13 12:53:24;;;;;;;1.85;0.77;;;22.20;91.70;;;;;;5016928;28;20847;-36
2022/06/13 12:56:13;;;;;;;2.88;0.80;;;22.20;91.10;;;;;;5013365;28;20253;-36
2022/06/13 12:59:07;;;;;;;3.50;0.90;;;22.30;91.00;;;;;;5017970;28;20221;-36
2022/06/13 13:01:49;;;;;;;2.40;0.90;;;22.30;91.20;;;;;;5028294;28;20216;-36
2022/06/13 13:04:55;;;;;;;1.52;0.63;;;22.30;91.00;;;;;;5020363;28;20198;-36
2022/06/13 13:07:59;;;;;;;2.20;0.80;;;22.40;91.50;;;;;;5026551;28;20283;-36
2022/06/13 13:10:32;;;;;;;2.25;0.80;;;22.40;91.30;;;;;;5028426;28;20199;-36
2022/06/13 13:13:29;;;;;;;3.05;0.80;;;22.40;91.30;;;;;;5029024;28;20289;-36
2022/06/13 13:15:59;;;;;;;2.63;1.00;;;22.40;91.20;;;;;;5027833;28;20304;-36
2022/06/13 13:18:46;;;;;;;1.73;0.93;;;22.40;90.50;;;;;;5019046;28;20205;-36
2022/06/13 13:21:39;;;;;;;2.53;0.93;;;22.30;90.70;;;;;;5023133;28;20205;-35
2022/06/13 13:24:32;;;;;;;3.13;1.10;;;22.30;90.60;;;;;;5019271;28;20248;-36
2022/06/13 13:27:02;;;;;;;2.20;0.68;;;22.30;90.90;;;;;;5026294;28;20211;-36
2022/06/13 13:30:12;;;;;;;2.28;0.85;;;22.30;90.60;;;;;;5025970;28;20208;-36
2022/06/13 13:32:59;;;;;;;2.75;1.00;;;22.30;90.90;;;;;;5021917;28;20225;-36
2022/06/13 13:35:36;;;;;;;2.65;0.82;;;22.40;90.80;;;;;;5028282;28;20211;-36
2022/06/13 13:38:13;;;;;;;3.78;0.90;;;22.30;90.70;;;;;;5026012;28;20204;-36
2022/06/13 13:40:43;;;;;;;4.60;1.05;;;22.30;90.80;;;;;;5028739;28;20295;-36
2022/06/13 13:43:16;;;;;;;1.75;0.77;;;22.30;90.70;;;;;;5025461;28;20221;-36
2022/06/13 13:45:51;;;;;;;4.68;0.80;;;22.30;91.20;;;;;;5028003;28;20303;-36
2022/06/13 13:48:24;;;;;;;2.97;0.68;;;22.40;90.80;;;;;;5028260;28;20515;-36
2022/06/13 13:51:02;;;;;;;2.65;0.80;;;22.40;90.80;;;;;;5060628;28;20236;-36
2022/06/13 13:53:47;;;;;;;3.08;0.85;;;22.40;90.30;;;;;;5021498;28;20290;-36